ANTO2: Kiamichi River, Antlers, OKla

                                SHEF ID:       ANTO2     Kiamichi River near Antlers, OK
STATION TYPE:
Regulating: Stage = 22.00, Flow = 20000

PRECIP PRECIP(A) STAGE RIV-FLOW BAT-LOAD
in in ft cfs volt
Ccp-Rev Ccp-Rev Ccp-Rev Ccp-Rev Ccp-Rev
(America/Chicago)
04/29 00:00 0.00 ---- 6.94 1990 12.55
04/29 01:00 0.00 ---- 7.12 2110 12.53
04/29 02:00 0.00 ---- 7.28 2210 12.52
04/29 03:00 0.00 ---- 7.39 2280 12.50
04/29 04:00 0.00 ---- 7.47 2340 12.48
04/29 05:00 0.00 ---- 7.47 2340 12.46
04/29 06:00 0.00 ---- 7.43 2320 12.44
04/29 07:00 0.00 ---- 7.31 2230 12.44
04/29 08:00 0.00 ---- 7.16 2130 12.57
04/29 09:00 0.00 ---- 6.99 2020 12.90
04/29 10:00 0.00 ---- 6.82 1920 13.30
04/29 11:00 0.00 ---- 6.67 1820 13.29
04/29 12:00 0.00 ---- 6.52 1730 13.18
04/29 13:00 0.00 ---- 6.40 1660 13.07
04/29 14:00 0.00 ---- 6.29 1600 13.03
04/29 15:00 0.00 ---- 6.20 1550 13.03
04/29 16:00 0.00 ---- 6.12 1500 13.00
04/29 17:00 0.00 ---- 6.06 1470 13.01
04/29 18:00 0.00 ---- 6.01 1440 12.98
04/29 19:00 0.00 ---- 5.96 1410 12.97
04/29 20:00 0.00 ---- 5.92 1390 12.88
04/29 21:00 0.00 ---- 5.88 1370 12.71
04/29 22:00 0.00 ---- 5.86 1360 12.63
04/29 23:00 ---- ---- ---- ---- ----
Data processed at Thu 30Apr2026 04:32 GMT

NOTICE: If you are parsing this page

Please convert to using our Data API. Starting early 2026 we will be migrating to: https://water.usace.army.mil with modern pages rendered in JavaScript. When this migration completes you will no longer be able to scrape this page! CWMSDataAPI (CDA)

Timeseries IDs (TSIDs)

TSIDs used from left to right in the data table
ANTL.Precip-Inc.Total.1Hour.1Hour.Ccp-Rev
ANTL.Precip-Inc Alt.Total.1Hour.1Hour.Ccp-Rev
ANTL.Stage.Inst.1Hour.0.Ccp-Rev
ANTL.Flow.Inst.1Hour.0.Ccp-Rev
ANTL.Volt-Battery Load.Inst.1Hour.0.Ccp-Rev

                            

All information presented herein is the property of the government of the United States of America and may be revised or deleted at any time without prior notice. Dissemination of this information without the expressed written consent of the Public Affairs Office, Tulsa District U.S. Army Corps of Engineers is strictly prohibited. These data are gathered electronically and, as presented, have NOT undergone any form of quality control. These data are NOT guaranteed to be valid or correct.